sensor_id;sensor_type;location;lat;lon;timestamp;P1;durP1;ratioP1;P2;durP2;ratioP2
23888;SDS011;12125;40.102;18.326;2022-09-21T00:01:12;4.28;;;2.00;;
23888;SDS011;12125;40.102;18.326;2022-09-21T00:03:39;1.80;;;1.70;;
23888;SDS011;12125;40.102;18.326;2022-09-21T00:06:14;4.07;;;2.15;;
23888;SDS011;12125;40.102;18.326;2022-09-21T00:08:41;4.95;;;2.45;;
23888;SDS011;12125;40.102;18.326;2022-09-21T00:11:17;6.78;;;1.90;;
23888;SDS011;12125;40.102;18.326;2022-09-21T00:13:44;6.80;;;2.22;;
23888;SDS011;12125;40.102;18.326;2022-09-21T00:16:13;3.97;;;2.10;;
23888;SDS011;12125;40.102;18.326;2022-09-21T00:18:39;6.55;;;2.10;;
23888;SDS011;12125;40.102;18.326;2022-09-21T00:21:10;10.05;;;2.20;;
23888;SDS011;12125;40.102;18.326;2022-09-21T00:23:37;3.60;;;1.92;;
23888;SDS011;12125;40.102;18.326;2022-09-21T00:26:05;6.55;;;2.67;;
23888;SDS011;12125;40.102;18.326;2022-09-21T00:28:32;3.53;;;2.20;;
23888;SDS011;12125;40.102;18.326;2022-09-21T00:31:03;3.53;;;2.33;;
23888;SDS011;12125;40.102;18.326;2022-09-21T00:33:29;3.63;;;2.60;;
23888;SDS011;12125;40.102;18.326;2022-09-21T00:36:00;4.85;;;2.60;;
23888;SDS011;12125;40.102;18.326;2022-09-21T00:38:27;5.38;;;2.50;;
23888;SDS011;12125;40.102;18.326;2022-09-21T00:40:54;5.50;;;2.53;;
23888;SDS011;12125;40.102;18.326;2022-09-21T00:43:20;4.88;;;2.40;;
23888;SDS011;12125;40.102;18.326;2022-09-21T00:45:47;3.90;;;2.33;;
23888;SDS011;12125;40.102;18.326;2022-09-21T00:48:15;2.95;;;1.98;;
23888;SDS011;12125;40.102;18.326;2022-09-21T00:50:45;5.00;;;2.60;;
23888;SDS011;12125;40.102;18.326;2022-09-21T00:53:15;3.42;;;2.42;;
23888;SDS011;12125;40.102;18.326;2022-09-21T00:55:42;4.22;;;2.22;;
23888;SDS011;12125;40.102;18.326;2022-09-21T00:58:13;3.50;;;1.92;;
23888;SDS011;12125;40.102;18.326;2022-09-21T01:00:41;2.38;;;2.15;;
23888;SDS011;12125;40.102;18.326;2022-09-21T01:03:08;4.30;;;2.63;;
23888;SDS011;12125;40.102;18.326;2022-09-21T01:05:35;4.72;;;2.75;;
23888;SDS011;12125;40.102;18.326;2022-09-21T01:08:02;5.07;;;3.10;;
23888;SDS011;12125;40.102;18.326;2022-09-21T01:10:31;4.78;;;2.92;;
23888;SDS011;12125;40.102;18.326;2022-09-21T01:25:50;4.57;;;3.60;;
23888;SDS011;12125;40.102;18.326;2022-09-21T01:30:53;6.85;;;3.35;;
23888;SDS011;12125;40.102;18.326;2022-09-21T01:33:24;5.13;;;3.30;;
23888;SDS011;12125;40.102;18.326;2022-09-21T01:35:54;4.55;;;3.33;;
23888;SDS011;12125;40.102;18.326;2022-09-21T01:38:25;4.22;;;2.58;;
23888;SDS011;12125;40.102;18.326;2022-09-21T01:40:58;3.65;;;2.88;;
23888;SDS011;12125;40.102;18.326;2022-09-21T01:43:30;5.57;;;2.53;;
23888;SDS011;12125;40.102;18.326;2022-09-21T01:45:57;3.63;;;2.22;;
23888;SDS011;12125;40.102;18.326;2022-09-21T01:48:26;3.47;;;2.25;;
23888;SDS011;12125;40.102;18.326;2022-09-21T01:50:55;5.25;;;2.63;;
23888;SDS011;12125;40.102;18.326;2022-09-21T01:53:30;3.10;;;2.25;;
23888;SDS011;12125;40.102;18.326;2022-09-21T01:56:04;2.67;;;1.98;;
23888;SDS011;12125;40.102;18.326;2022-09-21T01:58:34;2.10;;;1.90;;
23888;SDS011;12125;40.102;18.326;2022-09-21T02:01:01;2.30;;;1.90;;
23888;SDS011;12125;40.102;18.326;2022-09-21T02:03:31;3.22;;;1.50;;
23888;SDS011;12125;40.102;18.326;2022-09-21T02:06:00;4.70;;;1.97;;
23888;SDS011;12125;40.102;18.326;2022-09-21T02:08:29;3.80;;;1.92;;
23888;SDS011;12125;40.102;18.326;2022-09-21T02:10:56;2.78;;;1.75;;
23888;SDS011;12125;40.102;18.326;2022-09-21T02:13:24;5.55;;;1.80;;
23888;SDS011;12125;40.102;18.326;2022-09-21T02:16:10;4.22;;;1.70;;
23888;SDS011;12125;40.102;18.326;2022-09-21T02:21:32;1.50;;;1.33;;
23888;SDS011;12125;40.102;18.326;2022-09-21T02:24:12;3.08;;;1.80;;
23888;SDS011;12125;40.102;18.326;2022-09-21T02:26:44;8.70;;;1.70;;
23888;SDS011;12125;40.102;18.326;2022-09-21T02:29:36;1.77;;;1.45;;
23888;SDS011;12125;40.102;18.326;2022-09-21T02:34:47;3.55;;;1.50;;
23888;SDS011;12125;40.102;18.326;2022-09-21T02:37:23;4.18;;;1.95;;
23888;SDS011;12125;40.102;18.326;2022-09-21T02:40:00;2.55;;;1.10;;
23888;SDS011;12125;40.102;18.326;2022-09-21T02:42:30;4.10;;;1.23;;
23888;SDS011;12125;40.102;18.326;2022-09-21T02:45:00;1.40;;;1.20;;
23888;SDS011;12125;40.102;18.326;2022-09-21T02:47:31;2.17;;;1.43;;
23888;SDS011;12125;40.102;18.326;2022-09-21T02:50:01;3.08;;;1.27;;
23888;SDS011;12125;40.102;18.326;2022-09-21T02:52:28;1.50;;;1.10;;
23888;SDS011;12125;40.102;18.326;2022-09-21T02:54:55;1.58;;;1.00;;
23888;SDS011;12125;40.102;18.326;2022-09-21T02:57:22;2.78;;;1.48;;
23888;SDS011;12125;40.102;18.326;2022-09-21T02:59:49;2.03;;;1.33;;
23888;SDS011;12125;40.102;18.326;2022-09-21T03:02:16;1.83;;;0.98;;
23888;SDS011;12125;40.102;18.326;2022-09-21T03:04:43;2.28;;;1.13;;
23888;SDS011;12125;40.102;18.326;2022-09-21T03:07:13;1.92;;;1.02;;
23888;SDS011;12125;40.102;18.326;2022-09-21T03:09:40;2.92;;;1.13;;
23888;SDS011;12125;40.102;18.326;2022-09-21T03:12:07;1.30;;;1.02;;
23888;SDS011;12125;40.102;18.326;2022-09-21T03:14:33;1.10;;;1.00;;
23888;SDS011;12125;40.102;18.326;2022-09-21T03:17:00;1.88;;;1.20;;
23888;SDS011;12125;40.102;18.326;2022-09-21T03:19:26;1.20;;;1.10;;
23888;SDS011;12125;40.102;18.326;2022-09-21T03:21:53;2.65;;;0.88;;
23888;SDS011;12125;40.102;18.326;2022-09-21T03:24:20;2.08;;;1.10;;
23888;SDS011;12125;40.102;18.326;2022-09-21T03:27:05;4.05;;;1.30;;
23888;SDS011;12125;40.102;18.326;2022-09-21T03:29:33;1.40;;;1.10;;
23888;SDS011;12125;40.102;18.326;2022-09-21T03:32:00;0.88;;;0.80;;
23888;SDS011;12125;40.102;18.326;2022-09-21T03:34:26;2.22;;;1.27;;
23888;SDS011;12125;40.102;18.326;2022-09-21T03:36:53;1.70;;;0.80;;
23888;SDS011;12125;40.102;18.326;2022-09-21T03:39:20;1.10;;;0.88;;
23888;SDS011;12125;40.102;18.326;2022-09-21T03:41:46;1.50;;;0.90;;
23888;SDS011;12125;40.102;18.326;2022-09-21T03:44:16;3.08;;;0.90;;
23888;SDS011;12125;40.102;18.326;2022-09-21T03:46:44;2.05;;;0.90;;
23888;SDS011;12125;40.102;18.326;2022-09-21T03:49:11;4.53;;;1.27;;
23888;SDS011;12125;40.102;18.326;2022-09-21T03:51:37;3.42;;;1.00;;
23888;SDS011;12125;40.102;18.326;2022-09-21T03:54:05;1.73;;;0.85;;
23888;SDS011;12125;40.102;18.326;2022-09-21T03:56:31;1.52;;;0.90;;
23888;SDS011;12125;40.102;18.326;2022-09-21T03:58:58;1.85;;;1.13;;
23888;SDS011;12125;40.102;18.326;2022-09-21T04:01:24;1.27;;;1.02;;
23888;SDS011;12125;40.102;18.326;2022-09-21T04:03:51;1.25;;;1.00;;
23888;SDS011;12125;40.102;18.326;2022-09-21T04:06:18;1.63;;;0.88;;
23888;SDS011;12125;40.102;18.326;2022-09-21T04:08:44;1.55;;;0.90;;
23888;SDS011;12125;40.102;18.326;2022-09-21T04:11:12;2.38;;;1.00;;
23888;SDS011;12125;40.102;18.326;2022-09-21T04:13:39;2.92;;;0.95;;
23888;SDS011;12125;40.102;18.326;2022-09-21T04:16:07;2.22;;;1.00;;
23888;SDS011;12125;40.102;18.326;2022-09-21T04:18:34;2.53;;;0.88;;
23888;SDS011;12125;40.102;18.326;2022-09-21T04:21:02;1.40;;;1.05;;
23888;SDS011;12125;40.102;18.326;2022-09-21T04:23:29;3.30;;;0.93;;
23888;SDS011;12125;40.102;18.326;2022-09-21T04:25:56;1.25;;;1.08;;
23888;SDS011;12125;40.102;18.326;2022-09-21T04:28:22;1.30;;;0.80;;
23888;SDS011;12125;40.102;18.326;2022-09-21T04:30:52;1.02;;;0.80;;
23888;SDS011;12125;40.102;18.326;2022-09-21T04:33:20;3.08;;;0.98;;
23888;SDS011;12125;40.102;18.326;2022-09-21T04:35:53;2.13;;;1.10;;
23888;SDS011;12125;40.102;18.326;2022-09-21T04:38:20;1.17;;;1.08;;
23888;SDS011;12125;40.102;18.326;2022-09-21T04:40:53;2.58;;;1.17;;
23888;SDS011;12125;40.102;18.326;2022-09-21T04:43:20;4.20;;;1.70;;
23888;SDS011;12125;40.102;18.326;2022-09-21T04:45:47;2.08;;;1.48;;
23888;SDS011;12125;40.102;18.326;2022-09-21T04:48:14;1.55;;;1.13;;
23888;SDS011;12125;40.102;18.326;2022-09-21T04:50:40;1.48;;;0.90;;
23888;SDS011;12125;40.102;18.326;2022-09-21T04:53:08;2.15;;;0.80;;
23888;SDS011;12125;40.102;18.326;2022-09-21T04:55:34;1.30;;;0.88;;
23888;SDS011;12125;40.102;18.326;2022-09-21T04:58:01;1.88;;;0.90;;
23888;SDS011;12125;40.102;18.326;2022-09-21T05:00:27;5.18;;;1.10;;
23888;SDS011;12125;40.102;18.326;2022-09-21T05:02:54;12.93;;;1.55;;
23888;SDS011;12125;40.102;18.326;2022-09-21T05:05:20;0.95;;;0.80;;
23888;SDS011;12125;40.102;18.326;2022-09-21T05:07:47;2.08;;;1.10;;
23888;SDS011;12125;40.102;18.326;2022-09-21T05:10:13;1.25;;;0.82;;
23888;SDS011;12125;40.102;18.326;2022-09-21T05:12:40;1.55;;;0.80;;
23888;SDS011;12125;40.102;18.326;2022-09-21T05:15:08;3.45;;;1.42;;
23888;SDS011;12125;40.102;18.326;2022-09-21T05:17:39;3.60;;;1.00;;
23888;SDS011;12125;40.102;18.326;2022-09-21T05:20:05;1.20;;;1.10;;
23888;SDS011;12125;40.102;18.326;2022-09-21T05:22:33;5.60;;;1.30;;
23888;SDS011;12125;40.102;18.326;2022-09-21T05:24:59;4.47;;;1.00;;
23888;SDS011;12125;40.102;18.326;2022-09-21T05:27:26;5.82;;;1.20;;
23888;SDS011;12125;40.102;18.326;2022-09-21T05:29:53;3.65;;;1.13;;
23888;SDS011;12125;40.102;18.326;2022-09-21T05:37:43;2.30;;;1.20;;
23888;SDS011;12125;40.102;18.326;2022-09-21T05:40:11;5.75;;;1.63;;
23888;SDS011;12125;40.102;18.326;2022-09-21T05:42:38;7.32;;;1.70;;
23888;SDS011;12125;40.102;18.326;2022-09-21T05:45:05;7.90;;;2.00;;
23888;SDS011;12125;40.102;18.326;2022-09-21T05:47:37;5.55;;;1.95;;
23888;SDS011;12125;40.102;18.326;2022-09-21T05:55:28;3.17;;;1.83;;
23888;SDS011;12125;40.102;18.326;2022-09-21T06:00:42;5.10;;;1.73;;
23888;SDS011;12125;40.102;18.326;2022-09-21T06:05:42;8.68;;;1.70;;
23888;SDS011;12125;40.102;18.326;2022-09-21T06:08:09;3.42;;;2.00;;
23888;SDS011;12125;40.102;18.326;2022-09-21T06:10:36;3.38;;;1.60;;
23888;SDS011;12125;40.102;18.326;2022-09-21T06:13:02;2.15;;;1.55;;
23888;SDS011;12125;40.102;18.326;2022-09-21T06:15:29;3.70;;;1.50;;
23888;SDS011;12125;40.102;18.326;2022-09-21T06:17:56;1.77;;;1.40;;
23888;SDS011;12125;40.102;18.326;2022-09-21T06:20:23;3.00;;;1.42;;
23888;SDS011;12125;40.102;18.326;2022-09-21T06:22:50;2.15;;;1.30;;
23888;SDS011;12125;40.102;18.326;2022-09-21T06:25:16;1.80;;;1.52;;
23888;SDS011;12125;40.102;18.326;2022-09-21T06:27:44;2.30;;;1.35;;
23888;SDS011;12125;40.102;18.326;2022-09-21T06:30:11;20.77;;;2.13;;
23888;SDS011;12125;40.102;18.326;2022-09-21T06:32:37;2.55;;;1.60;;
23888;SDS011;12125;40.102;18.326;2022-09-21T06:35:07;5.25;;;1.50;;
23888;SDS011;12125;40.102;18.326;2022-09-21T06:37:33;2.97;;;1.50;;
23888;SDS011;12125;40.102;18.326;2022-09-21T06:40:02;3.10;;;1.67;;
23888;SDS011;12125;40.102;18.326;2022-09-21T06:42:29;6.43;;;1.83;;
23888;SDS011;12125;40.102;18.326;2022-09-21T06:44:55;8.02;;;1.95;;
23888;SDS011;12125;40.102;18.326;2022-09-21T06:47:22;5.63;;;1.50;;
23888;SDS011;12125;40.102;18.326;2022-09-21T06:49:49;7.80;;;1.80;;
23888;SDS011;12125;40.102;18.326;2022-09-21T06:52:17;8.57;;;1.90;;
23888;SDS011;12125;40.102;18.326;2022-09-21T06:54:46;5.55;;;1.85;;
23888;SDS011;12125;40.102;18.326;2022-09-21T06:57:17;5.90;;;1.70;;
23888;SDS011;12125;40.102;18.326;2022-09-21T06:59:47;13.77;;;8.30;;
23888;SDS011;12125;40.102;18.326;2022-09-21T07:02:14;36.67;;;27.15;;
23888;SDS011;12125;40.102;18.326;2022-09-21T07:04:41;64.78;;;49.70;;
23888;SDS011;12125;40.102;18.326;2022-09-21T07:07:08;24.30;;;17.10;;
23888;SDS011;12125;40.102;18.326;2022-09-21T07:09:34;15.55;;;9.57;;
23888;SDS011;12125;40.102;18.326;2022-09-21T07:12:01;112.40;;;66.65;;
23888;SDS011;12125;40.102;18.326;2022-09-21T07:14:27;70.47;;;43.80;;
23888;SDS011;12125;40.102;18.326;2022-09-21T07:16:54;124.93;;;80.15;;
23888;SDS011;12125;40.102;18.326;2022-09-21T07:19:21;119.68;;;83.03;;
23888;SDS011;12125;40.102;18.326;2022-09-21T07:21:47;59.95;;;34.13;;
23888;SDS011;12125;40.102;18.326;2022-09-21T07:24:14;39.95;;;23.20;;
23888;SDS011;12125;40.102;18.326;2022-09-21T07:26:41;20.30;;;12.88;;
23888;SDS011;12125;40.102;18.326;2022-09-21T07:29:08;6.47;;;4.70;;
23888;SDS011;12125;40.102;18.326;2022-09-21T07:31:34;9.88;;;2.88;;
23888;SDS011;12125;40.102;18.326;2022-09-21T07:34:01;9.73;;;3.10;;
23888;SDS011;12125;40.102;18.326;2022-09-21T07:36:28;4.78;;;2.67;;
23888;SDS011;12125;40.102;18.326;2022-09-21T07:38:55;10.95;;;2.45;;
23888;SDS011;12125;40.102;18.326;2022-09-21T07:41:22;5.20;;;2.55;;
23888;SDS011;12125;40.102;18.326;2022-09-21T07:43:48;4.82;;;2.35;;
23888;SDS011;12125;40.102;18.326;2022-09-21T07:46:15;6.05;;;2.80;;
23888;SDS011;12125;40.102;18.326;2022-09-21T07:48:41;9.55;;;3.55;;
23888;SDS011;12125;40.102;18.326;2022-09-21T07:51:09;6.43;;;2.60;;
23888;SDS011;12125;40.102;18.326;2022-09-21T07:53:38;4.60;;;1.95;;
23888;SDS011;12125;40.102;18.326;2022-09-21T07:56:08;4.68;;;2.20;;
23888;SDS011;12125;40.102;18.326;2022-09-21T07:58:36;4.35;;;2.15;;
23888;SDS011;12125;40.102;18.326;2022-09-21T08:01:22;8.52;;;2.70;;
23888;SDS011;12125;40.102;18.326;2022-09-21T08:03:49;4.50;;;2.05;;
23888;SDS011;12125;40.102;18.326;2022-09-21T08:06:16;9.05;;;2.15;;
23888;SDS011;12125;40.102;18.326;2022-09-21T08:08:42;5.18;;;2.17;;
23888;SDS011;12125;40.102;18.326;2022-09-21T08:11:13;8.05;;;2.30;;
23888;SDS011;12125;40.102;18.326;2022-09-21T08:13:39;5.85;;;2.50;;
23888;SDS011;12125;40.102;18.326;2022-09-21T08:16:06;10.88;;;2.65;;
23888;SDS011;12125;40.102;18.326;2022-09-21T08:18:35;23.75;;;3.97;;
23888;SDS011;12125;40.102;18.326;2022-09-21T08:21:02;4.65;;;2.20;;
23888;SDS011;12125;40.102;18.326;2022-09-21T08:23:29;9.60;;;2.50;;
23888;SDS011;12125;40.102;18.326;2022-09-21T08:25:59;4.35;;;2.38;;
23888;SDS011;12125;40.102;18.326;2022-09-21T08:28:26;5.63;;;2.25;;
23888;SDS011;12125;40.102;18.326;2022-09-21T08:30:53;4.38;;;2.22;;
23888;SDS011;12125;40.102;18.326;2022-09-21T08:33:23;11.13;;;2.17;;
23888;SDS011;12125;40.102;18.326;2022-09-21T08:35:52;3.38;;;1.50;;
23888;SDS011;12125;40.102;18.326;2022-09-21T08:38:19;6.47;;;1.98;;
23888;SDS011;12125;40.102;18.326;2022-09-21T08:40:46;4.53;;;1.92;;
23888;SDS011;12125;40.102;18.326;2022-09-21T08:43:15;11.82;;;2.63;;
23888;SDS011;12125;40.102;18.326;2022-09-21T08:45:44;25.20;;;3.03;;
23888;SDS011;12125;40.102;18.326;2022-09-21T08:48:24;10.55;;;4.22;;
23888;SDS011;12125;40.102;18.326;2022-09-21T08:50:53;9.27;;;1.85;;
23888;SDS011;12125;40.102;18.326;2022-09-21T08:53:36;4.93;;;1.13;;
23888;SDS011;12125;40.102;18.326;2022-09-21T08:56:04;1.98;;;1.02;;
23888;SDS011;12125;40.102;18.326;2022-09-21T08:58:30;2.55;;;1.05;;
23888;SDS011;12125;40.102;18.326;2022-09-21T09:01:07;3.42;;;1.20;;
23888;SDS011;12125;40.102;18.326;2022-09-21T09:03:44;2.17;;;1.25;;
23888;SDS011;12125;40.102;18.326;2022-09-21T09:11:34;3.17;;;1.08;;
23888;SDS011;12125;40.102;18.326;2022-09-21T09:18:59;1.58;;;1.35;;
23888;SDS011;12125;40.102;18.326;2022-09-21T09:21:33;2.63;;;1.20;;
23888;SDS011;12125;40.102;18.326;2022-09-21T09:26:31;2.42;;;1.33;;
23888;SDS011;12125;40.102;18.326;2022-09-21T09:29:02;4.38;;;1.27;;
23888;SDS011;12125;40.102;18.326;2022-09-21T09:31:33;2.25;;;1.27;;
23888;SDS011;12125;40.102;18.326;2022-09-21T09:34:10;2.60;;;1.30;;
23888;SDS011;12125;40.102;18.326;2022-09-21T09:36:38;1.67;;;1.35;;
23888;SDS011;12125;40.102;18.326;2022-09-21T09:39:14;2.88;;;1.67;;
23888;SDS011;12125;40.102;18.326;2022-09-21T09:49:12;1.83;;;1.23;;
23888;SDS011;12125;40.102;18.326;2022-09-21T09:51:39;1.17;;;1.08;;
23888;SDS011;12125;40.102;18.326;2022-09-21T09:54:11;4.00;;;1.30;;
23888;SDS011;12125;40.102;18.326;2022-09-21T09:59:09;2.88;;;1.02;;
23888;SDS011;12125;40.102;18.326;2022-09-21T10:01:41;5.57;;;1.30;;
23888;SDS011;12125;40.102;18.326;2022-09-21T10:04:12;4.10;;;1.20;;
23888;SDS011;12125;40.102;18.326;2022-09-21T10:06:39;4.97;;;1.83;;
23888;SDS011;12125;40.102;18.326;2022-09-21T10:09:21;2.05;;;1.05;;
23888;SDS011;12125;40.102;18.326;2022-09-21T10:14:21;6.07;;;1.60;;
23888;SDS011;12125;40.102;18.326;2022-09-21T10:16:49;5.68;;;2.33;;
23888;SDS011;12125;40.102;18.326;2022-09-21T10:19:21;6.07;;;2.47;;
23888;SDS011;12125;40.102;18.326;2022-09-21T10:21:49;18.98;;;2.63;;
23888;SDS011;12125;40.102;18.326;2022-09-21T10:24:36;3.28;;;1.30;;
23888;SDS011;12125;40.102;18.326;2022-09-21T10:27:05;2.05;;;1.35;;
23888;SDS011;12125;40.102;18.326;2022-09-21T10:29:39;3.80;;;1.75;;
23888;SDS011;12125;40.102;18.326;2022-09-21T10:34:39;4.20;;;1.50;;
23888;SDS011;12125;40.102;18.326;2022-09-21T10:37:23;6.20;;;1.80;;
23888;SDS011;12125;40.102;18.326;2022-09-21T10:39:51;10.07;;;1.95;;
23888;SDS011;12125;40.102;18.326;2022-09-21T10:42:18;15.23;;;2.80;;
23888;SDS011;12125;40.102;18.326;2022-09-21T10:44:51;4.45;;;1.65;;
23888;SDS011;12125;40.102;18.326;2022-09-21T10:47:20;30.25;;;3.70;;
23888;SDS011;12125;40.102;18.326;2022-09-21T10:49:57;7.80;;;1.50;;
23888;SDS011;12125;40.102;18.326;2022-09-21T10:52:35;2.92;;;1.65;;
23888;SDS011;12125;40.102;18.326;2022-09-21T10:55:03;99.90;;;7.32;;
23888;SDS011;12125;40.102;18.326;2022-09-21T10:57:30;5.88;;;1.30;;
23888;SDS011;12125;40.102;18.326;2022-09-21T11:00:02;8.93;;;1.40;;
23888;SDS011;12125;40.102;18.326;2022-09-21T11:02:37;3.53;;;1.92;;
23888;SDS011;12125;40.102;18.326;2022-09-21T11:07:36;8.35;;;1.92;;
23888;SDS011;12125;40.102;18.326;2022-09-21T11:10:16;4.47;;;1.63;;
23888;SDS011;12125;40.102;18.326;2022-09-21T11:13:03;3.75;;;1.27;;
23888;SDS011;12125;40.102;18.326;2022-09-21T11:20:51;3.67;;;1.33;;
23888;SDS011;12125;40.102;18.326;2022-09-21T11:28:46;4.80;;;1.60;;
23888;SDS011;12125;40.102;18.326;2022-09-21T11:36:23;4.78;;;1.45;;
23888;SDS011;12125;40.102;18.326;2022-09-21T11:39:08;1.88;;;1.27;;
23888;SDS011;12125;40.102;18.326;2022-09-21T11:41:47;5.25;;;1.50;;
23888;SDS011;12125;40.102;18.326;2022-09-21T11:57:19;5.80;;;1.60;;
23888;SDS011;12125;40.102;18.326;2022-09-21T12:07:16;4.93;;;1.35;;
23888;SDS011;12125;40.102;18.326;2022-09-21T12:15:35;6.88;;;1.80;;
23888;SDS011;12125;40.102;18.326;2022-09-21T12:18:07;7.00;;;2.08;;
23888;SDS011;12125;40.102;18.326;2022-09-21T12:23:11;5.25;;;1.55;;
23888;SDS011;12125;40.102;18.326;2022-09-21T12:25:41;10.75;;;1.88;;
23888;SDS011;12125;40.102;18.326;2022-09-21T12:28:24;7.68;;;1.40;;
23888;SDS011;12125;40.102;18.326;2022-09-21T12:30:58;4.80;;;1.77;;
23888;SDS011;12125;40.102;18.326;2022-09-21T12:35:58;5.72;;;1.55;;
23888;SDS011;12125;40.102;18.326;2022-09-21T12:38:29;3.60;;;1.80;;
23888;SDS011;12125;40.102;18.326;2022-09-21T12:40:58;5.32;;;1.35;;
23888;SDS011;12125;40.102;18.326;2022-09-21T12:43:34;5.30;;;1.30;;
23888;SDS011;12125;40.102;18.326;2022-09-21T12:46:05;3.88;;;1.42;;
23888;SDS011;12125;40.102;18.326;2022-09-21T12:48:35;1.85;;;1.23;;
23888;SDS011;12125;40.102;18.326;2022-09-21T12:51:12;2.88;;;0.98;;
23888;SDS011;12125;40.102;18.326;2022-09-21T12:53:43;5.82;;;1.50;;
23888;SDS011;12125;40.102;18.326;2022-09-21T13:00:18;4.28;;;1.00;;
23888;SDS011;12125;40.102;18.326;2022-09-21T13:01:51;4.15;;;1.20;;
23888;SDS011;12125;40.102;18.326;2022-09-21T13:07:02;7.25;;;1.50;;
23888;SDS011;12125;40.102;18.326;2022-09-21T13:09:33;3.58;;;1.10;;
23888;SDS011;12125;40.102;18.326;2022-09-21T13:12:09;2.45;;;1.20;;
23888;SDS011;12125;40.102;18.326;2022-09-21T13:14:50;3.42;;;1.30;;
23888;SDS011;12125;40.102;18.326;2022-09-21T13:17:29;7.78;;;1.70;;
23888;SDS011;12125;40.102;18.326;2022-09-21T13:20:06;4.40;;;1.17;;
23888;SDS011;12125;40.102;18.326;2022-09-21T13:22:41;4.45;;;1.10;;
23888;SDS011;12125;40.102;18.326;2022-09-21T13:25:19;7.03;;;1.60;;
23888;SDS011;12125;40.102;18.326;2022-09-21T13:28:03;1.90;;;1.50;;
23888;SDS011;12125;40.102;18.326;2022-09-21T13:30:40;8.45;;;1.60;;
23888;SDS011;12125;40.102;18.326;2022-09-21T13:49:02;24.52;;;2.90;;
23888;SDS011;12125;40.102;18.326;2022-09-21T13:51:33;16.63;;;1.98;;
23888;SDS011;12125;40.102;18.326;2022-09-21T13:54:01;60.20;;;6.30;;
23888;SDS011;12125;40.102;18.326;2022-09-21T13:56:28;13.32;;;1.95;;
23888;SDS011;12125;40.102;18.326;2022-09-21T13:58:57;34.88;;;3.17;;
23888;SDS011;12125;40.102;18.326;2022-09-21T14:01:31;9.15;;;1.90;;
23888;SDS011;12125;40.102;18.326;2022-09-21T14:04:03;1.75;;;1.45;;
23888;SDS011;12125;40.102;18.326;2022-09-21T14:06:32;2.65;;;1.30;;
23888;SDS011;12125;40.102;18.326;2022-09-21T14:09:01;3.03;;;1.52;;
23888;SDS011;12125;40.102;18.326;2022-09-21T14:18:59;3.95;;;1.38;;
23888;SDS011;12125;40.102;18.326;2022-09-21T14:21:26;9.98;;;2.50;;
23888;SDS011;12125;40.102;18.326;2022-09-21T14:24:07;4.97;;;1.90;;
23888;SDS011;12125;40.102;18.326;2022-09-21T14:31:47;6.82;;;1.90;;
23888;SDS011;12125;40.102;18.326;2022-09-21T14:34:16;13.05;;;1.92;;
23888;SDS011;12125;40.102;18.326;2022-09-21T14:36:45;7.03;;;1.98;;
23888;SDS011;12125;40.102;18.326;2022-09-21T14:39:18;5.65;;;1.50;;
23888;SDS011;12125;40.102;18.326;2022-09-21T14:41:46;1.85;;;1.40;;
23888;SDS011;12125;40.102;18.326;2022-09-21T14:44:18;3.75;;;1.42;;
23888;SDS011;12125;40.102;18.326;2022-09-21T14:49:26;5.93;;;1.52;;
23888;SDS011;12125;40.102;18.326;2022-09-21T15:02:16;4.00;;;1.23;;
23888;SDS011;12125;40.102;18.326;2022-09-21T15:17:58;5.05;;;1.42;;
23888;SDS011;12125;40.102;18.326;2022-09-21T15:20:27;3.88;;;1.52;;
23888;SDS011;12125;40.102;18.326;2022-09-21T15:22:54;4.30;;;1.50;;
23888;SDS011;12125;40.102;18.326;2022-09-21T15:25:22;3.47;;;1.27;;
23888;SDS011;12125;40.102;18.326;2022-09-21T15:27:49;6.38;;;1.42;;
23888;SDS011;12125;40.102;18.326;2022-09-21T15:30:21;6.80;;;1.50;;
23888;SDS011;12125;40.102;18.326;2022-09-21T15:35:20;3.05;;;1.00;;
23888;SDS011;12125;40.102;18.326;2022-09-21T15:37:48;3.25;;;1.50;;
23888;SDS011;12125;40.102;18.326;2022-09-21T15:40:16;2.78;;;1.10;;
23888;SDS011;12125;40.102;18.326;2022-09-21T15:43:27;5.53;;;1.00;;
23888;SDS011;12125;40.102;18.326;2022-09-21T15:45:50;4.70;;;0.90;;
23888;SDS011;12125;40.102;18.326;2022-09-21T15:48:22;4.93;;;0.90;;
23888;SDS011;12125;40.102;18.326;2022-09-21T15:50:51;1.70;;;0.60;;
23888;SDS011;12125;40.102;18.326;2022-09-21T15:53:30;43.17;;;3.25;;
23888;SDS011;12125;40.102;18.326;2022-09-21T15:55:57;2.75;;;0.93;;
23888;SDS011;12125;40.102;18.326;2022-09-21T16:01:02;2.42;;;0.98;;
23888;SDS011;12125;40.102;18.326;2022-09-21T16:03:34;4.72;;;1.08;;
23888;SDS011;12125;40.102;18.326;2022-09-21T16:06:24;4.30;;;1.13;;
23888;SDS011;12125;40.102;18.326;2022-09-21T16:08:50;3.40;;;1.42;;
23888;SDS011;12125;40.102;18.326;2022-09-21T16:14:07;4.22;;;1.05;;
23888;SDS011;12125;40.102;18.326;2022-09-21T16:17:06;3.25;;;1.02;;
23888;SDS011;12125;40.102;18.326;2022-09-21T16:24:57;3.65;;;1.02;;
23888;SDS011;12125;40.102;18.326;2022-09-21T16:27:28;1.92;;;1.00;;
23888;SDS011;12125;40.102;18.326;2022-09-21T16:29:57;16.90;;;2.03;;
23888;SDS011;12125;40.102;18.326;2022-09-21T16:32:32;7.35;;;1.30;;
23888;SDS011;12125;40.102;18.326;2022-09-21T16:37:46;2.22;;;0.88;;
23888;SDS011;12125;40.102;18.326;2022-09-21T16:40:13;3.42;;;1.20;;
23888;SDS011;12125;40.102;18.326;2022-09-21T16:42:40;2.50;;;1.30;;
23888;SDS011;12125;40.102;18.326;2022-09-21T16:45:15;205.13;;;14.05;;
23888;SDS011;12125;40.102;18.326;2022-09-21T16:47:45;10.32;;;1.70;;
23888;SDS011;12125;40.102;18.326;2022-09-21T16:50:12;13.00;;;1.70;;
23888;SDS011;12125;40.102;18.326;2022-09-21T16:52:43;10.98;;;1.65;;
23888;SDS011;12125;40.102;18.326;2022-09-21T16:55:13;11.50;;;2.10;;
23888;SDS011;12125;40.102;18.326;2022-09-21T16:57:43;2.90;;;0.90;;
23888;SDS011;12125;40.102;18.326;2022-09-21T17:00:10;1.65;;;1.38;;
23888;SDS011;12125;40.102;18.326;2022-09-21T17:02:38;12.63;;;1.77;;
23888;SDS011;12125;40.102;18.326;2022-09-21T17:05:07;4.72;;;1.77;;
23888;SDS011;12125;40.102;18.326;2022-09-21T17:07:34;13.65;;;2.47;;
23888;SDS011;12125;40.102;18.326;2022-09-21T17:10:00;4.97;;;1.88;;
23888;SDS011;12125;40.102;18.326;2022-09-21T17:12:33;6.82;;;2.13;;
23888;SDS011;12125;40.102;18.326;2022-09-21T17:15:00;8.77;;;2.47;;
23888;SDS011;12125;40.102;18.326;2022-09-21T17:17:29;6.65;;;2.15;;
23888;SDS011;12125;40.102;18.326;2022-09-21T17:19:57;8.45;;;2.45;;
23888;SDS011;12125;40.102;18.326;2022-09-21T17:22:27;3.70;;;1.83;;
23888;SDS011;12125;40.102;18.326;2022-09-21T17:24:54;10.60;;;2.22;;
23888;SDS011;12125;40.102;18.326;2022-09-21T17:27:21;5.63;;;2.30;;
23888;SDS011;12125;40.102;18.326;2022-09-21T17:29:49;11.82;;;2.35;;
23888;SDS011;12125;40.102;18.326;2022-09-21T17:32:19;4.93;;;2.00;;
23888;SDS011;12125;40.102;18.326;2022-09-21T17:34:46;3.20;;;2.22;;
23888;SDS011;12125;40.102;18.326;2022-09-21T17:37:14;10.77;;;3.30;;
23888;SDS011;12125;40.102;18.326;2022-09-21T17:39:41;5.85;;;2.50;;
23888;SDS011;12125;40.102;18.326;2022-09-21T17:42:20;7.20;;;2.75;;
23888;SDS011;12125;40.102;18.326;2022-09-21T17:47:36;10.50;;;2.85;;
23888;SDS011;12125;40.102;18.326;2022-09-21T17:50:13;4.47;;;2.50;;
23888;SDS011;12125;40.102;18.326;2022-09-21T17:52:41;3.40;;;2.35;;
23888;SDS011;12125;40.102;18.326;2022-09-21T17:55:26;4.47;;;2.25;;
23888;SDS011;12125;40.102;18.326;2022-09-21T18:00:45;23.52;;;3.30;;
23888;SDS011;12125;40.102;18.326;2022-09-21T18:05:44;4.28;;;1.90;;
23888;SDS011;12125;40.102;18.326;2022-09-21T18:08:13;5.10;;;1.52;;